Terminal Aerodrome Forecast
Issued by NWS

Home | Current Version | Previous Version | Text Only | Print | Product List | Glossary On
Versions: 1 2 3 4 5 6 7 8 9 10 11 12 13 14 15 16 17 18 19 20 21 22
000
FTUS42 KILM 221700
TAFCRE
TAF
KCRE 221726Z 2218/2318 12006KT P6SM VCSH SCT010 BKN035 BKN060
      TEMPO 2218/2221 3SM SHRA BR BKN015 BKN025
     FM230000 19005KT P6SM VCSH FEW020 BKN150
     FM230600 23005KT P6SM VCSH SCT020 SCT040 BKN150
     FM231300 26005KT P6SM SCT015 BKN150=

USA.gov is the U.S. government's official web portal to all federal, state and local government web resources and services.